Hlavní strana
METAR-TAF:

METAR-TAF

Letiště :

Mount Vernon Airport

Mount Vernon, Illinois, Spojené státy americké

zeměpisná šířka: 38-19N, zeměpisná délka: 088-52W, výška: 146 m

Aktuální stav počasí

Zpráva byla vytvořena před 50 minutami, v 20:56 UTC
Severovýchodní vítr 7 kt, proměnlivý mezi severoseverovýchodním a východním
Teplota 10°C
Vlhkost vzduchu 40%
Tlak 1027 hPa
Viditelnost: 16.1 km
Jasno

METAR: KMVN 252056Z AUTO 05007KT 020V080 10SM CLR 10/M03 A3034 RMK AO2 SLP280 T01001033 56018

Čas: 15:46 (21:46 UTC)

Předpověď počasí

Zpráva byla vytvořena před 4 hodinami a 26 minutami, v 17:20 UTC
Předpověď platná od 25 v 18 UTC do 26 v 18 UTC
Severoseverovýchodní vítr 3 kt
Viditelnost: 10 km
Skoro jasno ve výšce 25000 ft
Od 26 v 0100 UTC
vítr z různých směrů 3 kt
Viditelnost: 10 km
Oblačno až skoro zataženo ve výšce 25000 ft
Od 26 v 1400 UTC
Východní vítr 6 kt
Viditelnost: 10 km
Polojasno ve výšce 25000 ft

TAF: KMVN 251720Z 2518/2618 03003KT P6SM FEW250 FM260100 VRB03KT P6SM BKN250 FM261400 09006KT P6SM SCT250

Stav a předpovědi počasí z více než 4 000 letišť (zprávy METAR a TAF).

Červené a žluté tečky na mapě představují dostupné meteorologické stanice.

Když kurzor umístíte na tečku, zobrazí se název stanice.

Pak kliknutím zobrazíte stav a předpověď počasí.

Chcete-li změnit mapu, kliknutím na zelené tlačítko se znaménkem +mapu přiblížíte, kliknutím na zelené tlačítko se znaménkem – mapu oddálíte a kliknutím na zelené šipky přejdete na sousední mapy.


METAR-TAF: